Latest Weather Observations for Lismore Airport

IDN60801

Issued at 10:04 pm EDT Wednesday 4 March 2015 (issued every 30 minutes, with the page automatically refreshed every 10 minutes)

About weather observations | Map of weather stations | Latest weather observations for NSW | Other Formats
Station Details ID: 058214 Name: LISMORE AIRPORT AWS Lat: -28.83 Lon: 153.26 Height: 9.21 m
Data from the previous 72 hours. | See also: Recent months for locations in New South Wales
Date/Time
EDT
Temp
°C
App
Temp
°C
Dew
Point
Rel
Hum
%
Delta-T
°C
Wind Press
QNH
hPa
Press
MSL
hPa
Rain
since 9 am
mm
Dir
 
Spd
km/h
Gust
km/h
Spd
kts
Gust
kts
04/10:00pm 23.6 24.0 19.9 80 2.4 NNE 17 22 9 12 1010.2 1010.2 0.0
04/09:30pm 24.0 24.4 19.9 78 2.6 NNE 17 20 9 11 1010.5 1010.5 0.0
04/09:00pm 24.3 25.2 20.0 77 2.8 NNE 15 22 8 12 1010.5 1010.5 0.0
04/08:30pm 24.5 25.4 20.0 76 2.9 NE 15 20 8 11 1010.1 1010.1 0.0
04/08:00pm 24.9 24.9 19.7 73 3.4 NE 19 24 10 13 1009.9 1009.9 0.0
04/07:30pm 25.4 25.1 19.5 70 3.8 NE 20 28 11 15 1009.6 1009.6 0.0
04/07:00pm 26.1 26.0 20.0 69 4.0 NE 20 28 11 15 1009.4 1009.4 0.0
04/06:30pm 27.1 27.1 20.2 66 4.5 NE 20 28 11 15 1009.2 1009.2 0.0
04/06:00pm 27.7 27.5 19.8 62 5.2 NE 20 32 11 17 1009.1 1009.1 0.0
04/05:30pm 28.4 28.5 20.4 62 5.3 NE 20 30 11 16 1009.2 1009.2 0.0
04/05:00pm 28.7 28.3 20.2 60 5.6 ENE 22 28 12 15 1009.3 1009.3 0.0
04/04:30pm 29.3 29.6 20.5 59 5.8 ENE 19 26 10 14 1009.6 1009.6 0.0
04/04:00pm 30.0 31.0 21.1 59 5.9 NE 17 22 9 12 1009.9 1009.9 0.0
04/03:30pm 30.1 31.3 20.6 56 6.3 NE 15 22 8 12 1010.4 1010.4 0.0
04/03:00pm 31.2 34.2 21.9 57 6.3 ENE 9 17 5 9 1010.6 1010.6 0.0
04/02:58pm 31.1 33.6 21.0 55 6.8 NE 9 17 5 9 1010.6 1010.6 0.0
04/02:40pm 30.4 31.9 20.6 55 6.5 N 13 17 7 9 1011.1 1011.1 0.0
04/02:30pm 30.4 32.6 20.3 54 6.7 NNW 9 17 5 9 1011.3 1011.3 0.0
04/02:00pm 30.3 32.2 20.5 55 6.5 NE 11 20 6 11 1011.8 1011.8 0.0
04/01:30pm 30.1 32.3 19.5 53 6.9 ESE 7 13 4 7 1012.3 1012.3 0.0
04/01:00pm 30.1 32.3 19.5 53 6.9 SE 7 11 4 6 1012.8 1012.8 0.0
04/12:32pm 29.1 31.1 19.1 54 6.5 N 7 13 4 7 1013.2 1013.2 0.0
04/12:30pm 28.8 30.7 18.9 55 6.4 N 7 13 4 7 1013.3 1013.3 0.0
04/12:00pm 28.5 30.5 19.1 56 6.1 W 7 15 4 8 1013.5 1013.5 0.0
04/11:52am 28.7 31.3 20.4 60 5.5 NNE 7 13 4 7 1013.7 1013.7 0.0
04/11:50am 28.3 29.9 19.2 57 5.9 NNE 9 15 5 8 1013.7 1013.7 0.0
04/11:47am 28.2 29.8 19.1 57 5.9 NE 9 15 5 8 1013.7 1013.7 0.0
04/11:30am 27.4 29.3 19.7 63 5.0 NW 9 15 5 8 1013.9 1013.9 0.0
04/11:28am 27.7 29.7 20.0 63 5.0 NW 9 15 5 8 1014.0 1014.0 0.0
04/11:20am 27.5 29.3 19.6 62 5.1 NNW 9 17 5 9 1014.1 1014.1 0.0
04/11:06am 26.7 28.1 18.6 61 5.2 N 9 13 5 7 1014.3 1014.3 0.0
04/11:00am 27.1 29.2 19.4 62 5.0 NW 7 11 4 6 1014.4 1014.4 0.0
04/10:39am 26.4 27.8 19.5 66 4.5 NNW 11 17 6 9 1014.5 1014.5 0.0
04/10:30am 26.3 29.1 20.8 71 3.6 N 7 13 4 7 1014.5 1014.5 0.0
04/10:12am 25.3 27.3 19.2 69 3.9 N 7 15 4 8 1014.5 1014.5 0.0
04/10:00am 24.8 27.3 21.1 80 2.4 N 9 13 5 7 1014.6 1014.6 0.0
04/09:44am 23.1 25.0 20.6 86 1.6 NNW 11 15 6 8 1014.7 1014.7 0.0
04/09:30am 22.2 24.6 20.8 92 0.9 N 9 13 5 7 1014.6 1014.6 0.0
04/09:00am 21.1 23.3 21.1 100 0.0 N 11 13 6 7 1014.4 1014.4 0.0
04/08:30am 19.6 21.4 19.6 100 0.0 N 9 11 5 6 1014.3 1014.3 0.0
04/08:00am 18.5 20.2 18.5 100 0.0 NNW 7 9 4 5 1014.2 1014.2 0.0
04/07:35am 18.1 19.2 18.1 100 0.0 NNE 9 9 5 5 1014.1 1014.1 0.0
04/07:32am 18.1 19.2 18.1 100 0.0 NNE 9 9 5 5 1014.1 1014.1 0.0
04/07:30am 18.1 19.2 18.1 100 0.0 NNE 9 9 5 5 1014.0 1014.0 0.0
04/07:17am 17.9 19.3 17.9 100 0.0 NNE 7 9 4 5 1014.0 1014.0 0.0
04/07:00am 17.3 18.5 17.3 100 0.0 NNE 7 9 4 5 1013.8 1013.8 0.0
04/06:30am 17.2 18.0 17.2 100 0.0 N 9 11 5 6 1013.3 1013.3 0.0
04/06:00am 17.3 18.1 17.3 100 0.0 N 9 11 5 6 1012.9 1012.9 0.0
04/05:30am 17.3 18.5 17.3 100 0.0 N 7 9 4 5 1013.0 1013.0 0.0
04/05:29am 17.4 18.6 17.4 100 0.0 N 7 9 4 5 1013.0 1013.0 0.0
04/05:23am 17.5 18.4 17.5 100 0.0 N 9 13 5 7 1012.9 1012.9 0.0
04/05:06am 17.2 18.0 17.2 100 0.0 N 9 9 5 5 1013.0 1013.0 0.0
04/05:02am 17.3 18.5 17.3 100 0.0 N 7 9 4 5 1013.0 1013.0 0.0
04/05:00am 17.3 18.5 17.3 100 0.0 N 7 9 4 5 1012.9 1012.9 0.0
04/04:57am 17.4 18.6 17.4 100 0.0 N 7 9 4 5 1012.9 1012.9 0.0
04/04:30am 17.4 19.9 17.2 99 0.1 CALM 0 0 0 0 1013.0 1013.0 0.0
04/04:00am 17.8 18.8 17.8 100 0.0 N 9 9 5 5 1013.2 1013.2 0.0
04/03:30am 18.0 18.6 17.8 99 0.1 N 11 13 6 7 1013.4 1013.4 0.0
04/03:00am 17.9 19.3 17.7 99 0.1 N 7 9 4 5 1013.7 1013.7 0.0
04/02:30am 18.4 19.6 18.2 99 0.1 NNW 9 11 5 6 1014.0 1014.0 0.0
04/02:00am 18.7 19.6 18.5 99 0.1 N 11 13 6 7 1014.4 1014.4 0.0
04/01:30am 18.6 19.9 18.4 99 0.1 NNE 9 11 5 6 1015.0 1015.0 0.0
04/01:00am 18.4 21.3 18.2 99 0.1 CALM 0 0 0 0 1015.4 1015.4 0.0
04/12:30am 18.9 22.0 18.7 99 0.1 CALM 0 0 0 0 1015.5 1015.5 0.0
04/12:00am 18.9 21.8 18.2 96 0.4 CALM 0 0 0 0 1015.7 1015.7 0.0
 
Date/Time
EDT
Temp
°C
App
Temp
°C
Dew
Point
Rel
Hum
%
Delta-T
°C
Wind Press
QNH
hPa
Press
MSL
hPa
Rain
since 9 am
mm
Dir
 
Spd
km/h
Gust
km/h
Spd
kts
Gust
kts
03/11:30pm 19.4 22.5 18.7 96 0.4 CALM 0 0 0 0 1015.8 1015.8 0.0
03/11:00pm 19.5 22.5 18.5 94 0.6 CALM 0 0 0 0 1015.9 1015.9 0.0
03/10:30pm 19.8 22.8 18.5 92 0.8 CALM 0 0 0 0 1016.0 1016.0 0.0
03/10:00pm 20.0 22.9 18.3 90 1.1 CALM 0 0 0 0 1015.8 1015.8 0.0
03/09:30pm 20.7 23.6 18.3 86 1.5 CALM 0 0 0 0 1015.7 1015.7 0.0
03/09:00pm 20.9 23.8 18.3 85 1.6 CALM 0 0 0 0 1015.4 1015.4 0.0
03/08:30pm 22.0 25.0 18.4 80 2.3 CALM 0 0 0 0 1014.9 1014.9 0.0
03/08:00pm 23.2 24.6 17.9 72 3.3 ESE 7 7 4 4 1014.5 1014.5 0.0
03/07:30pm 23.7 25.1 17.7 69 3.7 ESE 7 11 4 6 1014.4 1014.4 0.0
03/07:00pm 24.4 24.6 17.6 66 4.2 SE 13 17 7 9 1013.8 1013.8 0.0
03/06:30pm 25.6 25.5 17.8 62 4.9 ESE 15 20 8 11 1013.6 1013.6 0.0
03/06:00pm 26.6 26.6 18.2 60 5.3 ESE 15 22 8 12 1013.3 1013.3 0.0
03/05:30pm 27.5 28.3 19.0 59 5.5 E 13 20 7 11 1012.9 1012.9 0.0
03/05:00pm 28.1 29.4 20.1 62 5.2 ESE 13 17 7 9 1013.1 1013.1 0.0
03/04:30pm 27.5 28.9 19.6 62 5.1 E 11 17 6 9 1013.0 1013.0 0.0
03/04:00pm 27.9 29.5 19.9 61 5.2 ENE 11 17 6 9 1013.0 1013.0 0.0
03/03:30pm 28.4 30.8 20.1 60 5.4 SE 7 15 4 8 1013.2 1013.2 0.0
03/03:00pm 28.5 30.2 18.6 55 6.4 ESE 7 15 4 8 1013.6 1013.6 0.0
03/02:30pm 28.2 30.1 20.5 63 5.1 SE 11 17 6 9 1014.1 1014.1 0.0
03/02:00pm 28.0 29.9 19.8 61 5.3 SSE 9 13 5 7 1014.5 1014.5 0.0
03/01:30pm 27.7 29.2 19.0 59 5.6 E 9 13 5 7 1014.7 1014.7 0.0
03/01:00pm 27.9 30.0 18.9 58 5.8 SSE 6 13 3 7 1015.0 1015.0 0.0
03/12:30pm 27.6 29.7 18.9 59 5.6 WSW 6 11 3 6 1015.5 1015.5 0.0
03/12:00pm 27.5 29.3 18.8 59 5.6 ENE 7 9 4 5 1015.8 1015.8 0.0
03/11:30am 26.9 30.2 20.0 66 4.5 W 2 9 1 5 1016.2 1016.2 0.0
03/11:00am 25.9 28.8 20.7 73 3.4 WNW 6 9 3 5 1016.5 1016.5 0.0
03/10:46am 25.7 28.5 20.5 73 3.4 W 6 9 3 5 1016.4 1016.4 0.0
03/10:30am 25.2 29.3 20.7 76 2.9 CALM 0 0 0 0 1016.4 1016.4 0.0
03/10:18am 25.3 29.4 20.8 76 3.0 CALM 0 0 0 0 1016.5 1016.5 0.0
03/10:00am 24.1 27.4 20.8 82 2.2 WNW 4 11 2 6 1016.4 1016.4 0.0
03/09:30am 23.3 25.5 20.4 84 1.9 SW 9 19 5 10 1016.6 1016.6 0.0
03/09:00am 22.5 25.5 21.3 93 0.8 WSW 7 13 4 7 1016.4 1016.4 2.0
03/08:30am 21.8 26.3 21.6 99 0.1 CALM 0 0 0 0 1016.2 1016.2 2.0
03/08:00am 20.9 25.0 20.7 99 0.1 CALM 0 0 0 0 1015.9 1015.9 2.0
03/07:30am 20.6 24.5 20.4 99 0.1 CALM 0 0 0 0 1015.8 1015.8 2.0
03/07:00am 20.6 24.6 20.6 100 0.0 CALM 0 0 0 0 1015.4 1015.4 2.0
03/06:30am 20.3 24.1 20.1 99 0.1 CALM 0 0 0 0 1015.0 1015.0 2.0
03/06:00am 20.5 24.1 20.5 100 0.0 SSW 2 6 1 3 1014.9 1014.9 2.0
03/05:30am 20.4 23.0 20.4 100 0.0 SW 7 11 4 6 1014.8 1014.8 2.0
03/05:00am 20.2 24.0 20.2 100 0.0 CALM 0 0 0 0 1014.7 1014.7 2.0
03/04:30am 20.0 23.7 20.0 100 0.0 CALM 0 0 0 0 1014.7 1014.7 2.0
03/04:00am 19.9 23.6 19.9 100 0.0 CALM 0 0 0 0 1014.6 1014.6 2.0
03/03:45am 19.9 23.6 19.9 100 0.0 CALM 0 0 0 0 1014.7 1014.7 1.8
03/03:30am 19.7 22.0 19.5 99 0.1 SE 6 6 3 3 1014.7 1014.7 1.8
03/03:00am 20.0 22.3 19.8 99 0.1 SSE 7 7 4 4 1015.1 1015.1 1.8
03/02:30am 20.4 23.1 20.2 99 0.1 SSE 6 9 3 5 1015.3 1015.3 1.8
03/02:00am 20.8 23.1 20.6 99 0.1 SSW 9 13 5 7 1015.7 1015.7 1.8
03/01:30am 20.8 24.0 20.6 99 0.1 S 4 11 2 6 1015.9 1015.9 1.8
03/01:00am 20.9 25.0 20.7 99 0.1 CALM 0 0 0 0 1016.1 1016.1 1.8
03/12:30am 21.2 25.4 21.0 99 0.1 CALM 0 0 0 0 1016.3 1016.3 1.8
03/12:00am 21.5 26.0 21.5 100 0.0 CALM 0 0 0 0 1016.4 1016.4 1.8
 
Date/Time
EDT
Temp
°C
App
Temp
°C
Dew
Point
Rel
Hum
%
Delta-T
°C
Wind Press
QNH
hPa
Press
MSL
hPa
Rain
since 9 am
mm
Dir
 
Spd
km/h
Gust
km/h
Spd
kts
Gust
kts
02/11:30pm 21.5 25.9 21.3 99 0.1 CALM 0 0 0 0 1016.4 1016.4 1.8
02/11:00pm 21.5 25.9 21.3 99 0.1 CALM 0 0 0 0 1016.5 1016.5 1.8
02/10:35pm 21.7 24.8 21.5 99 0.1 S 7 9 4 5 1016.4 1016.4 1.4
02/10:30pm 21.7 25.0 21.5 99 0.1 S 6 9 3 5 1016.5 1016.5 1.4
02/10:08pm 21.8 24.6 21.6 99 0.1 SSW 9 11 5 6 1016.7 1016.7 1.4
02/10:02pm 21.8 24.9 21.5 98 0.2 S 7 11 4 6 1016.7 1016.7 1.4
02/10:00pm 21.8 25.1 21.5 98 0.2 S 6 9 3 5 1016.7 1016.7 1.4
02/09:49pm 21.9 26.4 21.6 98 0.2 CALM 0 0 0 0 1016.5 1016.5 1.0
02/09:30pm 22.0 26.5 21.5 97 0.3 CALM 0 0 0 0 1016.2 1016.2 0.4
02/09:23pm 21.9 26.3 21.4 97 0.3 CALM 0 0 0 0 1016.1 1016.1 0.4
02/09:06pm 22.0 26.5 21.5 97 0.3 CALM 0 0 0 0 1015.9 1015.9 0.4
02/09:00pm 22.0 26.5 21.5 97 0.3 CALM 0 0 0 0 1015.8 1015.8 0.4
02/08:30pm 21.9 26.2 21.2 96 0.5 CALM 0 0 0 0 1015.5 1015.5 0.4
02/08:00pm 22.0 25.3 21.5 97 0.3 S 6 7 3 4 1015.2 1015.2 0.4
02/07:45pm 22.1 25.2 21.4 96 0.5 S 7 15 4 8 1015.0 1015.0 0.4
02/07:30pm 22.1 26.5 21.3 95 0.5 CALM 0 9 0 5 1014.8 1014.8 0.4
02/07:21pm 22.2 26.7 21.5 96 0.5 CALM 0 6 0 3 1014.8 1014.8 0.4
02/07:00pm 22.4 25.6 21.6 95 0.5 SSW 7 9 4 5 1014.6 1014.6 0.4
02/06:30pm 23.0 25.2 21.1 89 1.2 SSW 11 15 6 8 1014.1 1014.1 0.4
02/06:00pm 22.6 23.1 21.2 92 0.9 SSE 20 32 11 17 1014.0 1014.0 0.4
02/05:30pm 24.7 23.7 20.4 77 2.8 S 26 37 14 20 1013.6 1013.6 0.4
02/05:00pm 24.3 24.3 21.0 82 2.2 SSE 22 30 12 16 1013.4 1013.4 0.4
02/04:30pm 25.5 23.4 20.5 74 3.3 S 32 44 17 24 1013.2 1013.2 0.4
02/04:00pm 26.7 25.0 20.5 69 4.1 SSE 30 43 16 23 1012.9 1012.9 0.4
02/03:30pm 26.7 25.5 20.8 70 3.9 SSE 28 33 15 18 1013.0 1013.0 0.4
02/03:00pm 27.1 27.0 21.4 71 3.8 SSE 24 32 13 17 1013.1 1013.1 0.4
02/02:30pm 26.7 25.5 20.8 70 3.9 SSE 28 37 15 20 1013.5 1013.5 0.4
02/02:00pm 27.0 26.3 21.1 70 3.9 SSE 26 39 14 21 1013.7 1013.7 0.4
02/01:30pm 27.1 27.6 21.2 70 3.9 SSE 20 30 11 16 1013.9 1013.9 0.4
02/01:00pm 26.7 26.5 21.2 72 3.6 SSE 24 32 13 17 1014.2 1014.2 0.2
02/12:30pm 26.0 26.6 21.4 76 3.1 SSE 20 26 11 14 1014.5 1014.5 0.2
02/12:00pm 25.3 27.2 22.0 82 2.2 S 15 19 8 10 1014.6 1014.6 0.2
02/11:30am 24.3 26.0 22.4 89 1.3 S 17 24 9 13 1014.8 1014.8 0.2
02/11:00am 25.4 26.7 22.3 83 2.1 S 19 24 10 13 1015.0 1015.0 0.0
02/10:30am 24.5 26.2 22.4 88 1.4 S 17 22 9 12 1015.0 1015.0 0.0
02/10:25am 24.4 26.5 22.5 89 1.3 S 15 20 8 11 1014.9 1014.9 0.0
02/10:00am 23.4 25.2 22.6 95 0.5 S 17 24 9 13 1014.6 1014.6 0.0
02/09:30am 23.8 26.9 22.2 91 1.1 S 9 17 5 9 1014.4 1014.4 0.0
02/09:27am 24.0 27.3 22.6 92 0.9 SSW 9 15 5 8 1014.4 1014.4 0.0
02/09:00am 23.6 25.9 22.8 95 0.5 SSW 15 20 8 11 1013.8 1013.8 1.2
02/08:30am 22.9 25.3 22.2 96 0.5 SW 13 22 7 12 1013.5 1013.5 1.2
02/08:06am 22.9 26.3 22.7 99 0.1 SSW 9 11 5 6 1013.2 1013.2 1.2
02/08:00am 22.8 25.8 22.6 99 0.1 SSW 11 15 6 8 1013.1 1013.1 1.2
02/07:30am 22.0 24.5 21.8 99 0.1 SSW 11 15 6 8 1013.0 1013.0 1.2
02/07:00am 21.8 23.5 21.6 99 0.1 SSW 15 20 8 11 1012.5 1012.5 1.2
02/06:38am 22.1 24.3 21.8 98 0.2 SSW 13 17 7 9 1012.1 1012.1 1.2
02/06:30am 22.4 24.4 22.2 99 0.1 S 15 24 8 13 1012.2 1012.2 1.2
02/06:00am 22.5 23.8 22.3 99 0.1 SW 19 26 10 14 1011.9 1011.9 1.2
02/05:30am 22.4 24.8 22.2 99 0.1 SW 13 17 7 9 1011.6 1011.6 0.6
02/05:00am 22.3 24.6 22.1 99 0.1 SW 13 19 7 10 1011.0 1011.0 0.6
02/04:30am 22.1 23.9 21.9 99 0.1 SW 15 19 8 10 1010.9 1010.9 0.6
02/04:00am 21.8 25.0 21.6 99 0.1 WSW 7 11 4 6 1010.9 1010.9 0.6
02/03:34am 21.4 25.7 21.2 99 0.1 CALM 0 0 0 0 1010.5 1010.5 0.6
02/03:30am 21.5 25.9 21.3 99 0.1 CALM 0 6 0 3 1010.4 1010.4 0.6
02/03:00am 21.6 24.7 21.4 99 0.1 N 7 9 4 5 1010.2 1010.2 0.6
02/02:30am 21.8 23.8 21.6 99 0.1 N 13 17 7 9 1010.3 1010.3 0.6
02/02:22am 21.9 24.8 21.7 99 0.1 N 9 15 5 8 1010.5 1010.5 0.6
02/02:00am 21.7 24.5 21.5 99 0.1 SW 9 11 5 6 1011.0 1011.0 0.6
02/01:31am 21.5 25.9 21.3 99 0.1 CALM 0 0 0 0 1010.7 1010.7 0.6
02/01:30am 21.5 25.9 21.3 99 0.1 CALM 0 0 0 0 1010.6 1010.6 0.6
02/01:00am 21.4 24.4 21.2 99 0.1 SW 7 9 4 5 1010.7 1010.7 0.6
02/12:30am 21.8 24.6 21.6 99 0.1 N 9 13 5 7 1010.5 1010.5 0.6
02/12:00am 22.0 26.5 21.5 97 0.3 CALM 0 0 0 0 1010.8 1010.8 0.6
 
Date/Time
EDT
Temp
°C
App
Temp
°C
Dew
Point
Rel
Hum
%
Delta-T
°C
Wind Press
QNH
hPa
Press
MSL
hPa
Rain
since 9 am
mm
Dir
 
Spd
km/h
Gust
km/h
Spd
kts
Gust
kts
01/11:30pm 22.3 26.8 21.6 96 0.5 CALM 0 0 0 0 1010.5 1010.5 0.6
01/11:06pm 22.5 26.5 22.0 97 0.3 SW 4 9 2 5 1010.4 1010.4 0.6
01/11:00pm 22.6 26.1 22.1 97 0.3 W 7 11 4 6 1010.4 1010.4 0.6
01/10:30pm 23.1 26.9 22.8 98 0.2 WSW 7 13 4 7 1010.4 1010.4 0.6
01/10:19pm 23.0 28.1 22.7 98 0.2 CALM 0 0 0 0 1010.3 1010.3 0.6
01/10:18pm 23.0 28.1 22.7 98 0.2 CALM 0 0 0 0 1010.3 1010.3 0.6

Other Formats:

Comma delimited format used in spreadsheet applications
http://www.bom.gov.au/fwo/IDN60801/IDN60801.94572.axf

JavaScript Object Notation format (JSON) in row-major order
http://www.bom.gov.au/fwo/IDN60801/IDN60801.94572.json